Time;durP1;ratioP1;P1;durP2;ratioP2;P2;SDS_P1;SDS_P2;PMS_P1;PMS_P2;Temp;Humidity;BMP_temperature;BMP_pressure;BME280_temperature;BME280_humidity;BME280_pressure;Samples;Min_cycle;Max_cycle;Signal;HPM_P1;HPM_P2
2021/08/31 00:02:00;;;;;;;10.15;5.82;;;19.00;91.40;;;;;;5067784;28;20050;-59
2021/08/31 00:04:25;;;;;;;15.30;6.53;;;19.00;91.40;;;;;;5049407;28;20024;-59
2021/08/31 00:06:51;;;;;;;11.82;5.90;;;19.00;91.40;;;;;;5063247;28;20112;-59
2021/08/31 00:09:16;;;;;;;11.50;6.50;;;19.00;91.50;;;;;;5029375;28;20043;-59
2021/08/31 00:11:44;;;;;;;7.13;5.75;;;19.00;91.50;;;;;;5058987;28;20056;-59
2021/08/31 00:14:10;;;;;;;7.20;5.72;;;19.00;91.50;;;;;;5062332;28;20039;-60
2021/08/31 00:16:36;;;;;;;11.32;5.82;;;19.00;91.50;;;;;;5029977;28;20047;-59
2021/08/31 00:19:02;;;;;;;6.68;5.55;;;19.00;91.60;;;;;;5045839;28;21213;-59
2021/08/31 00:21:27;;;;;;;7.32;5.70;;;19.00;91.60;;;;;;5046492;28;20036;-59
2021/08/31 00:23:52;;;;;;;9.73;5.20;;;19.00;91.60;;;;;;5024732;28;20370;-60
2021/08/31 00:26:18;;;;;;;9.82;5.35;;;19.00;91.60;;;;;;5041569;28;20136;-59
2021/08/31 00:28:43;;;;;;;8.38;5.53;;;18.90;91.60;;;;;;5039250;28;20043;-59
2021/08/31 00:31:09;;;;;;;9.05;5.35;;;18.90;91.60;;;;;;5057225;28;20039;-60
2021/08/31 00:33:34;;;;;;;8.40;6.28;;;18.90;91.60;;;;;;5043550;28;20029;-59
2021/08/31 00:36:03;;;;;;;8.95;5.40;;;18.90;91.60;;;;;;5043281;28;20353;-60
2021/08/31 00:38:29;;;;;;;8.95;5.40;;;18.90;91.60;;;;;;5039166;28;20426;-60
2021/08/31 00:40:55;;;;;;;6.95;4.90;;;18.90;91.60;;;;;;5061364;28;20048;-59
2021/08/31 00:43:20;;;;;;;6.90;5.30;;;18.90;91.70;;;;;;5064656;28;20025;-59
2021/08/31 00:45:48;;;;;;;7.93;5.38;;;18.90;91.70;;;;;;5062982;28;20037;-59
2021/08/31 00:48:13;;;;;;;8.52;5.20;;;18.90;91.70;;;;;;5042426;28;20054;-60
2021/08/31 00:50:39;;;;;;;8.00;5.78;;;18.90;91.70;;;;;;5055855;28;20036;-59
2021/08/31 00:53:05;;;;;;;7.55;6.03;;;18.80;91.70;;;;;;5037224;28;20040;-59
2021/08/31 00:55:31;;;;;;;9.60;7.60;;;18.80;91.70;;;;;;5038465;28;20066;-59
2021/08/31 00:57:56;;;;;;;12.80;7.60;;;18.80;91.70;;;;;;5023774;28;20102;-59
2021/08/31 01:00:22;;;;;;;9.15;7.53;;;18.80;91.70;;;;;;5063014;28;20070;-60
2021/08/31 01:02:47;;;;;;;8.68;6.75;;;18.90;91.60;;;;;;5036981;28;20353;-59
2021/08/31 01:05:13;;;;;;;8.30;6.40;;;18.80;91.60;;;;;;5055197;28;20444;-59
2021/08/31 01:07:38;;;;;;;8.43;6.30;;;18.80;91.60;;;;;;5051234;28;20024;-59
2021/08/31 01:10:06;;;;;;;8.43;5.97;;;18.90;91.70;;;;;;5026480;28;20055;-59
2021/08/31 01:12:31;;;;;;;11.02;6.47;;;18.80;91.60;;;;;;5030465;28;20491;-60
2021/08/31 01:14:57;;;;;;;9.32;6.13;;;18.80;91.60;;;;;;5063072;28;20029;-59
2021/08/31 01:17:24;;;;;;;10.68;6.40;;;18.80;91.60;;;;;;5066345;28;20520;-60
2021/08/31 01:19:49;;;;;;;8.10;6.88;;;18.80;91.70;;;;;;5041483;28;20041;-59
2021/08/31 01:22:15;;;;;;;8.23;5.70;;;18.80;91.70;;;;;;5048631;28;20384;-60
2021/08/31 01:24:44;;;;;;;7.93;6.30;;;18.80;91.70;;;;;;5023538;28;20036;-59
2021/08/31 01:27:10;;;;;;;9.35;6.63;;;18.80;91.70;;;;;;5045771;28;20036;-60
2021/08/31 01:29:36;;;;;;;10.35;5.65;;;18.80;91.70;;;;;;5026664;28;20016;-59
2021/08/31 01:32:02;;;;;;;6.68;5.97;;;18.70;91.70;;;;;;5061471;28;20570;-60
2021/08/31 01:34:27;;;;;;;6.25;5.65;;;18.80;91.80;;;;;;5052402;28;20074;-60
2021/08/31 01:36:53;;;;;;;7.30;5.80;;;18.70;91.80;;;;;;5032358;28;20053;-60
2021/08/31 01:39:18;;;;;;;10.35;5.90;;;18.70;91.80;;;;;;5032531;28;20033;-60
2021/08/31 01:41:44;;;;;;;8.80;5.32;;;18.70;91.80;;;;;;5053249;28;20192;-59
2021/08/31 01:44:09;;;;;;;5.93;5.32;;;18.70;91.80;;;;;;5063989;28;20025;-59
2021/08/31 01:46:35;;;;;;;6.80;5.43;;;18.70;91.90;;;;;;5066581;28;20048;-60
2021/08/31 01:49:00;;;;;;;6.40;5.65;;;18.70;91.90;;;;;;5066050;28;20029;-60
2021/08/31 01:51:26;;;;;;;6.75;5.47;;;18.70;91.90;;;;;;5049925;28;20041;-59
2021/08/31 01:53:52;;;;;;;8.95;5.35;;;18.70;91.90;;;;;;5065014;28;20120;-59
2021/08/31 01:56:18;;;;;;;5.68;5.10;;;18.70;91.90;;;;;;5045671;28;20528;-60
2021/08/31 01:58:43;;;;;;;7.45;4.85;;;18.70;91.90;;;;;;5042579;28;20132;-59
2021/08/31 02:01:09;;;;;;;6.32;5.47;;;18.70;91.90;;;;;;5069024;28;20039;-60
2021/08/31 02:03:34;;;;;;;7.47;5.57;;;18.70;91.90;;;;;;5045715;28;20028;-60
2021/08/31 02:06:00;;;;;;;7.32;5.57;;;18.60;91.90;;;;;;5059637;28;20032;-59
2021/08/31 02:08:25;;;;;;;5.75;5.15;;;18.70;91.90;;;;;;5044199;28;20104;-60
2021/08/31 02:10:51;;;;;;;5.93;5.35;;;18.60;91.90;;;;;;5071613;28;20053;-60
2021/08/31 02:13:16;;;;;;;6.65;5.60;;;18.60;92.00;;;;;;5062288;28;20358;-60
2021/08/31 02:15:42;;;;;;;5.40;4.90;;;18.60;92.00;;;;;;5061814;28;20051;-60
2021/08/31 02:18:07;;;;;;;7.45;5.13;;;18.60;92.00;;;;;;5068331;28;20110;-59
2021/08/31 02:20:33;;;;;;;5.55;5.00;;;18.60;92.00;;;;;;5043204;28;20091;-60
2021/08/31 02:22:59;;;;;;;7.47;5.55;;;18.60;92.00;;;;;;5058451;28;20019;-59
2021/08/31 02:25:24;;;;;;;9.95;5.75;;;18.60;92.10;;;;;;5042376;28;20041;-59
2021/08/31 02:27:50;;;;;;;6.05;5.50;;;18.60;92.10;;;;;;5028912;28;20099;-59
2021/08/31 02:30:15;;;;;;;8.32;5.82;;;18.50;92.10;;;;;;5067543;28;20043;-59
2021/08/31 02:32:41;;;;;;;6.03;5.45;;;18.50;92.10;;;;;;5044646;28;20078;-60
2021/08/31 02:35:07;;;;;;;6.50;5.90;;;18.50;92.10;;;;;;5068660;28;20036;-60
2021/08/31 02:37:32;;;;;;;8.20;6.13;;;18.60;92.20;;;;;;5045377;28;20112;-59
2021/08/31 02:39:58;;;;;;;9.18;6.85;;;18.50;92.20;;;;;;5066428;28;20024;-60
2021/08/31 02:42:23;;;;;;;7.72;6.93;;;18.50;92.20;;;;;;5060579;28;20051;-59
2021/08/31 02:44:49;;;;;;;9.65;7.63;;;18.50;92.20;;;;;;5066547;28;20048;-60
2021/08/31 02:47:15;;;;;;;8.93;7.55;;;18.50;92.20;;;;;;5066117;28;20038;-60
2021/08/31 02:49:40;;;;;;;8.95;6.95;;;18.50;92.20;;;;;;5046276;28;20036;-60
2021/08/31 02:52:07;;;;;;;10.73;7.10;;;18.50;92.20;;;;;;5061836;28;20032;-59
2021/08/31 02:54:32;;;;;;;7.80;6.80;;;18.50;92.20;;;;;;5043900;28;20142;-60
2021/08/31 02:56:58;;;;;;;8.30;7.40;;;18.50;92.20;;;;;;5041836;28;20381;-59
2021/08/31 02:59:25;;;;;;;7.82;7.03;;;18.50;92.20;;;;;;5068831;28;20058;-60
2021/08/31 03:04:21;;;;;;;7.40;6.63;;;18.50;92.20;;;;;;5055844;28;20017;-59
2021/08/31 03:06:47;;;;;;;7.75;6.68;;;18.50;92.20;;;;;;5046305;28;20097;-59
2021/08/31 03:09:12;;;;;;;6.78;6.15;;;18.40;92.20;;;;;;5061302;28;20060;-60
2021/08/31 03:11:38;;;;;;;7.45;6.65;;;18.50;92.30;;;;;;5042820;28;20540;-59
2021/08/31 03:14:03;;;;;;;9.00;6.88;;;18.50;92.30;;;;;;5049297;28;20337;-59
2021/08/31 03:16:29;;;;;;;8.40;6.80;;;18.40;92.30;;;;;;5031243;28;20056;-59
2021/08/31 03:18:54;;;;;;;8.23;7.15;;;18.50;92.30;;;;;;5042853;28;20461;-59
2021/08/31 03:21:20;;;;;;;12.13;7.00;;;18.40;92.30;;;;;;5061056;28;20029;-59
2021/08/31 03:23:45;;;;;;;21.58;7.88;;;18.40;92.30;;;;;;5035479;28;20471;-59
2021/08/31 03:26:11;;;;;;;17.40;7.85;;;18.40;92.30;;;;;;5072933;28;20313;-60
2021/08/31 03:28:37;;;;;;;24.73;8.70;;;18.40;92.40;;;;;;5053441;28;20090;-60
2021/08/31 03:31:02;;;;;;;41.80;11.48;;;18.40;92.40;;;;;;5069238;28;20047;-60
2021/08/31 03:33:28;;;;;;;39.25;10.98;;;18.40;92.40;;;;;;5064622;28;20044;-59
2021/08/31 03:35:53;;;;;;;42.60;10.35;;;18.30;92.40;;;;;;5046446;28;20016;-60
2021/08/31 03:38:19;;;;;;;42.55;11.10;;;18.30;92.40;;;;;;5061204;28;20037;-59
2021/08/31 03:40:44;;;;;;;43.65;10.50;;;18.30;92.50;;;;;;5063358;28;20466;-60
2021/08/31 03:43:10;;;;;;;42.13;10.98;;;18.30;92.40;;;;;;5070133;28;20161;-59
2021/08/31 03:45:35;;;;;;;33.55;9.07;;;18.30;92.40;;;;;;5073410;28;20039;-60
2021/08/31 03:48:01;;;;;;;41.75;10.07;;;18.40;92.40;;;;;;5071390;28;20054;-60
2021/08/31 03:50:26;;;;;;;34.53;8.88;;;18.30;92.30;;;;;;5043835;28;20104;-59
2021/08/31 03:52:52;;;;;;;24.63;8.55;;;18.30;92.30;;;;;;5058998;28;20044;-60
2021/08/31 03:55:17;;;;;;;38.85;9.07;;;18.40;92.40;;;;;;5042161;28;20040;-60
2021/08/31 03:57:43;;;;;;;40.85;9.15;;;18.40;92.30;;;;;;5059543;28;20384;-60
2021/08/31 04:00:09;;;;;;;32.45;7.95;;;18.40;92.30;;;;;;5014602;28;20127;-60
2021/08/31 04:02:34;;;;;;;23.88;8.05;;;18.40;92.30;;;;;;5034905;28;20020;-60
2021/08/31 04:05:00;;;;;;;35.63;8.57;;;18.30;92.30;;;;;;5045584;28;20090;-59
2021/08/31 04:07:25;;;;;;;21.08;8.52;;;18.40;92.30;;;;;;5049504;28;20044;-60
2021/08/31 04:09:51;;;;;;;28.73;8.00;;;18.30;92.30;;;;;;5042511;28;20020;-60
2021/08/31 04:12:16;;;;;;;35.13;8.70;;;18.30;92.20;;;;;;5051369;28;20472;-60
2021/08/31 04:14:43;;;;;;;31.65;8.18;;;18.30;92.30;;;;;;5046134;28;20044;-60
2021/08/31 04:17:09;;;;;;;26.73;7.80;;;18.30;92.30;;;;;;5069352;28;20047;-60
2021/08/31 04:19:34;;;;;;;21.65;7.30;;;18.30;92.30;;;;;;5063535;28;20024;-59
2021/08/31 04:22:01;;;;;;;29.42;7.82;;;18.30;92.40;;;;;;5058856;28;20202;-60
2021/08/31 04:24:27;;;;;;;30.73;7.35;;;18.30;92.40;;;;;;5060665;28;20079;-59
2021/08/31 04:26:52;;;;;;;22.40;7.38;;;18.30;92.50;;;;;;5030495;28;20027;-60
2021/08/31 04:29:18;;;;;;;26.60;7.32;;;18.30;92.40;;;;;;5043089;28;20259;-60
2021/08/31 04:31:43;;;;;;;22.70;7.80;;;18.30;92.60;;;;;;5059717;28;20047;-60
2021/08/31 04:34:09;;;;;;;22.67;7.55;;;18.30;92.60;;;;;;5043453;28;20336;-59
2021/08/31 04:36:34;;;;;;;31.13;7.47;;;18.30;92.60;;;;;;5026527;28;20441;-60
2021/08/31 04:39:00;;;;;;;17.27;6.38;;;18.20;92.60;;;;;;5047179;28;20151;-60
2021/08/31 04:41:25;;;;;;;26.60;7.25;;;18.20;92.70;;;;;;5065081;28;20040;-60
2021/08/31 04:43:51;;;;;;;51.20;8.13;;;18.30;92.70;;;;;;5062169;28;20118;-60
2021/08/31 04:46:16;;;;;;;82.32;10.15;;;18.20;92.60;;;;;;5041876;28;20087;-59
2021/08/31 04:48:42;;;;;;;54.28;9.95;;;18.20;92.60;;;;;;5048584;28;20449;-60
2021/08/31 04:51:07;;;;;;;57.92;9.48;;;18.20;92.60;;;;;;5069029;28;20179;-60
2021/08/31 04:53:33;;;;;;;50.10;8.80;;;18.20;92.70;;;;;;5059672;28;20562;-59
2021/08/31 04:55:58;;;;;;;38.33;7.88;;;18.20;92.60;;;;;;5061516;28;20098;-60
2021/08/31 04:58:24;;;;;;;33.95;7.22;;;18.20;92.70;;;;;;5041589;28;20131;-60
2021/08/31 05:00:49;;;;;;;47.53;8.65;;;18.20;92.70;;;;;;5043293;28;20111;-60
2021/08/31 05:03:15;;;;;;;31.15;7.28;;;18.20;92.70;;;;;;5062172;28;20093;-60
2021/08/31 05:05:42;;;;;;;32.80;7.10;;;18.10;92.70;;;;;;5060709;28;20043;-59
2021/08/31 05:08:07;;;;;;;29.08;7.53;;;18.20;92.70;;;;;;5064243;28;20412;-60
2021/08/31 05:10:33;;;;;;;31.52;7.82;;;18.10;92.70;;;;;;5074756;28;20028;-60
2021/08/31 05:12:58;;;;;;;25.50;6.85;;;18.10;92.70;;;;;;5052533;28;20032;-60
2021/08/31 05:15:24;;;;;;;27.30;6.65;;;18.10;92.70;;;;;;5048335;28;20031;-59
2021/08/31 05:17:49;;;;;;;26.58;6.28;;;18.10;92.70;;;;;;5073832;28;20106;-59
2021/08/31 05:20:15;;;;;;;28.73;6.38;;;18.10;92.70;;;;;;5067190;28;20130;-59
2021/08/31 05:22:40;;;;;;;31.52;7.30;;;18.10;92.70;;;;;;5050112;28;20146;-59
2021/08/31 05:25:06;;;;;;;33.10;6.63;;;18.10;92.70;;;;;;5070365;28;20028;-60
2021/08/31 05:27:32;;;;;;;22.27;6.60;;;18.10;92.60;;;;;;5049397;28;20079;-60
2021/08/31 05:29:57;;;;;;;17.08;6.43;;;18.00;92.60;;;;;;5046293;28;20086;-59
2021/08/31 05:32:23;;;;;;;26.60;6.50;;;18.00;92.60;;;;;;5062899;28;20731;-60
2021/08/31 05:34:48;;;;;;;15.55;5.75;;;18.10;92.60;;;;;;5055263;28;20093;-59
2021/08/31 05:37:14;;;;;;;19.02;6.15;;;18.10;92.50;;;;;;5051246;28;20029;-60
2021/08/31 05:39:39;;;;;;;15.73;5.55;;;18.00;92.40;;;;;;5049749;28;20024;-59
2021/08/31 05:42:09;;;;;;;19.38;6.07;;;18.00;92.40;;;;;;5060025;28;20033;-60
2021/08/31 05:44:37;;;;;;;13.00;5.47;;;18.00;92.40;;;;;;5058986;28;20032;-60
2021/08/31 05:47:02;;;;;;;21.45;5.53;;;18.10;92.30;;;;;;5046780;28;20033;-59
2021/08/31 05:49:29;;;;;;;21.13;6.03;;;18.00;92.30;;;;;;5029714;28;20047;-59
2021/08/31 05:51:55;;;;;;;16.80;5.50;;;18.00;92.30;;;;;;5063043;28;20029;-59
2021/08/31 05:54:21;;;;;;;17.45;6.15;;;18.10;92.30;;;;;;5040162;28;20387;-59
2021/08/31 05:56:47;;;;;;;11.95;5.72;;;18.00;92.20;;;;;;5019784;28;20355;-59
2021/08/31 05:59:14;;;;;;;19.17;5.85;;;18.10;92.20;;;;;;5038744;28;20108;-60
2021/08/31 06:01:40;;;;;;;10.38;5.38;;;18.00;92.20;;;;;;5063241;28;20106;-60
2021/08/31 06:04:05;;;;;;;15.00;6.20;;;18.10;92.30;;;;;;5012108;28;20040;-60
2021/08/31 06:06:31;;;;;;;19.30;6.05;;;18.00;92.20;;;;;;5039615;28;20396;-60
2021/08/31 06:08:56;;;;;;;11.13;5.70;;;18.00;92.20;;;;;;5064785;28;20391;-61
2021/08/31 06:11:22;;;;;;;11.68;5.60;;;18.10;92.20;;;;;;5056135;28;20428;-60
2021/08/31 06:13:48;;;;;;;11.63;5.65;;;18.00;92.10;;;;;;5054991;28;20059;-60
2021/08/31 06:16:13;;;;;;;13.20;5.65;;;18.10;92.10;;;;;;5029772;28;20158;-60
2021/08/31 06:18:39;;;;;;;11.77;5.18;;;18.10;92.10;;;;;;5049829;28;20492;-60
2021/08/31 06:21:04;;;;;;;17.88;5.45;;;18.00;92.00;;;;;;5067268;28;20054;-60
2021/08/31 06:23:30;;;;;;;10.45;5.40;;;18.10;92.00;;;;;;5028748;28;20051;-61
2021/08/31 06:25:56;;;;;;;12.45;5.57;;;18.10;92.00;;;;;;5042465;28;20116;-60
2021/08/31 06:28:21;;;;;;;11.05;4.95;;;18.10;92.00;;;;;;5065449;28;20119;-60
2021/08/31 06:30:47;;;;;;;8.82;5.20;;;18.10;92.00;;;;;;5065960;28;20033;-60
2021/08/31 06:33:12;;;;;;;14.40;5.88;;;18.10;91.90;;;;;;5027182;28;20063;-60
2021/08/31 06:35:38;;;;;;;14.52;6.10;;;18.10;92.00;;;;;;5046368;28;20040;-60
2021/08/31 06:38:03;;;;;;;13.73;6.20;;;18.20;91.90;;;;;;5045935;28;20099;-60
2021/08/31 06:40:29;;;;;;;11.00;5.60;;;18.20;91.80;;;;;;5061930;28;20020;-60
2021/08/31 06:42:54;;;;;;;9.43;5.25;;;18.20;91.70;;;;;;5065530;28;20031;-60
2021/08/31 06:45:20;;;;;;;14.10;5.78;;;18.20;91.70;;;;;;5062912;28;20460;-60
2021/08/31 06:47:45;;;;;;;13.68;5.38;;;18.20;91.60;;;;;;5053606;28;20029;-59
2021/08/31 06:50:16;;;;;;;8.07;5.30;;;18.20;91.60;;;;;;5030368;28;20446;-59
2021/08/31 06:52:43;;;;;;;10.95;5.78;;;18.20;91.60;;;;;;5030257;28;20030;-60
2021/08/31 06:55:09;;;;;;;10.38;5.97;;;18.20;91.50;;;;;;5063817;28;20025;-60
2021/08/31 06:57:35;;;;;;;10.07;5.30;;;18.20;91.40;;;;;;5022059;28;20484;-60
2021/08/31 07:00:00;;;;;;;11.07;5.82;;;18.30;91.40;;;;;;5031967;28;20051;-59
2021/08/31 07:02:26;;;;;;;17.30;5.93;;;18.20;91.40;;;;;;5058866;28;20040;-60
2021/08/31 07:04:53;;;;;;;25.67;6.85;;;18.30;91.30;;;;;;5051360;28;20029;-59
2021/08/31 07:07:18;;;;;;;39.42;8.52;;;18.30;91.30;;;;;;5045144;28;20024;-60
2021/08/31 07:09:44;;;;;;;24.98;7.63;;;18.30;91.40;;;;;;5046556;28;20048;-59
2021/08/31 07:12:11;;;;;;;25.45;7.35;;;18.20;91.40;;;;;;5061691;28;20037;-60
2021/08/31 07:14:37;;;;;;;32.50;7.93;;;18.20;91.40;;;;;;5034675;28;20041;-60
2021/08/31 07:17:03;;;;;;;25.17;8.02;;;18.20;91.50;;;;;;5027508;28;20389;-59
2021/08/31 07:19:29;;;;;;;30.02;7.53;;;18.20;91.60;;;;;;5046017;28;20032;-59
2021/08/31 07:21:54;;;;;;;19.42;7.35;;;18.10;91.70;;;;;;5069379;28;20032;-60
2021/08/31 07:24:21;;;;;;;23.00;7.38;;;18.10;91.60;;;;;;5012388;28;20028;-60
2021/08/31 07:26:46;;;;;;;23.88;7.97;;;18.20;91.60;;;;;;5062146;28;20546;-60
2021/08/31 07:29:12;;;;;;;21.73;7.43;;;18.20;91.60;;;;;;5053178;28;20125;-60
2021/08/31 07:31:37;;;;;;;20.15;7.35;;;18.20;91.50;;;;;;5048875;28;20032;-60
2021/08/31 07:34:03;;;;;;;19.10;7.10;;;18.20;91.40;;;;;;5061831;28;20033;-60
2021/08/31 07:36:28;;;;;;;16.33;7.25;;;18.20;91.40;;;;;;5030904;28;20017;-60
2021/08/31 07:38:55;;;;;;;19.20;6.63;;;18.20;91.30;;;;;;5024849;28;20592;-60
2021/08/31 07:41:21;;;;;;;25.65;6.93;;;18.20;91.30;;;;;;5054708;28;20449;-60
2021/08/31 07:43:46;;;;;;;17.50;7.32;;;18.20;91.30;;;;;;5047599;28;20111;-60
2021/08/31 07:46:12;;;;;;;26.15;7.88;;;18.20;91.30;;;;;;5054873;28;20071;-60
2021/08/31 07:48:38;;;;;;;20.27;6.88;;;18.20;91.30;;;;;;5041968;28;20068;-60
2021/08/31 07:51:03;;;;;;;16.15;6.20;;;18.30;91.20;;;;;;5039091;28;20450;-59
2021/08/31 07:53:29;;;;;;;17.38;6.38;;;18.20;91.20;;;;;;5049168;28;20472;-60
2021/08/31 07:55:54;;;;;;;15.93;6.63;;;18.30;91.20;;;;;;5030232;28;20539;-59
2021/08/31 07:58:20;;;;;;;15.05;7.28;;;18.30;91.10;;;;;;5061710;28;20033;-60
2021/08/31 08:00:45;;;;;;;10.65;6.38;;;18.30;91.20;;;;;;5043386;28;20032;-60
2021/08/31 08:03:11;;;;;;;17.55;6.45;;;18.30;91.20;;;;;;5027178;28;20504;-60
2021/08/31 08:05:36;;;;;;;17.08;6.63;;;18.30;91.20;;;;;;5038455;28;20479;-60
2021/08/31 08:08:02;;;;;;;13.38;6.15;;;18.30;91.10;;;;;;5071696;28;20119;-60
2021/08/31 08:10:28;;;;;;;18.17;6.05;;;18.30;91.10;;;;;;5044128;28;20500;-60
2021/08/31 08:12:53;;;;;;;13.20;5.78;;;18.30;91.10;;;;;;5063689;28;20028;-60
2021/08/31 08:15:21;;;;;;;14.40;6.18;;;18.40;91.10;;;;;;5045051;28;20270;-59
2021/08/31 08:17:48;;;;;;;20.23;6.18;;;18.30;91.00;;;;;;5048595;28;20048;-60
2021/08/31 08:20:13;;;;;;;15.98;6.13;;;18.40;91.30;;;;;;5069124;28;20464;-60
2021/08/31 08:22:39;;;;;;;16.17;6.70;;;18.40;91.10;;;;;;5041835;28;20035;-60
2021/08/31 08:25:05;;;;;;;18.05;6.03;;;18.40;91.10;;;;;;5038923;28;20040;-59
2021/08/31 08:27:31;;;;;;;13.20;5.63;;;18.40;91.20;;;;;;5047576;28;20811;-59
2021/08/31 08:29:56;;;;;;;10.32;6.25;;;18.40;91.20;;;;;;5041185;28;20103;-60
2021/08/31 08:32:22;;;;;;;13.38;6.00;;;18.40;91.10;;;;;;5038681;28;20493;-59
2021/08/31 08:34:48;;;;;;;20.35;6.68;;;18.40;91.00;;;;;;5040428;28;20328;-60
2021/08/31 08:37:13;;;;;;;22.70;6.80;;;18.50;91.00;;;;;;5038383;28;20444;-60
2021/08/31 08:39:39;;;;;;;19.30;6.53;;;18.30;91.00;;;;;;5056368;28;20484;-60
2021/08/31 08:42:05;;;;;;;25.63;7.22;;;18.40;91.10;;;;;;5050088;28;20115;-60
2021/08/31 08:44:30;;;;;;;18.83;5.85;;;18.40;91.20;;;;;;5045958;28;20066;-60
2021/08/31 08:46:56;;;;;;;21.35;6.20;;;18.40;91.10;;;;;;5049359;28;20336;-60
2021/08/31 08:49:22;;;;;;;11.43;5.90;;;18.50;91.10;;;;;;5064208;28;20456;-60
2021/08/31 08:51:48;;;;;;;32.65;7.85;;;18.50;91.10;;;;;;5030461;28;20059;-59
2021/08/31 08:54:13;;;;;;;15.68;6.53;;;18.50;91.10;;;;;;5042996;28;20703;-60
2021/08/31 08:56:39;;;;;;;27.25;6.50;;;18.50;91.00;;;;;;5064190;28;20546;-60
2021/08/31 08:59:04;;;;;;;29.95;7.40;;;18.60;91.00;;;;;;5043473;28;20503;-60
2021/08/31 09:01:47;;;;;;;27.65;7.18;;;18.50;90.90;;;;;;5047483;28;20116;-60
2021/08/31 09:04:14;;;;;;;21.77;6.10;;;18.50;90.90;;;;;;5062285;28;20063;-60
2021/08/31 09:06:41;;;;;;;26.48;6.40;;;18.50;90.80;;;;;;5046130;28;20113;-59
2021/08/31 09:09:07;;;;;;;27.52;6.57;;;18.60;90.90;;;;;;5044014;28;20096;-59
2021/08/31 09:11:40;;;;;;;26.00;6.22;;;18.60;90.90;;;;;;5046494;28;20452;-60
2021/08/31 09:14:27;;;;;;;18.52;5.57;;;18.60;90.70;;;;;;5053253;28;20040;-60
2021/08/31 09:17:08;;;;;;;20.77;6.53;;;18.70;90.70;;;;;;5036760;28;20063;-59
2021/08/31 09:19:38;;;;;;;23.48;6.03;;;18.70;90.70;;;;;;5047638;28;20054;-59
2021/08/31 09:22:24;;;;;;;41.38;7.15;;;18.70;90.60;;;;;;5062905;28;20025;-59
2021/08/31 09:25:02;;;;;;;17.88;6.85;;;18.80;90.60;;;;;;5046699;28;20025;-59
2021/08/31 09:27:38;;;;;;;37.58;7.18;;;18.80;90.40;;;;;;5066399;28;20033;-60
2021/08/31 09:30:23;;;;;;;37.08;5.90;;;18.80;90.20;;;;;;5033776;28;20037;-59
2021/08/31 09:33:09;;;;;;;24.52;5.13;;;18.80;90.00;;;;;;5062993;28;20421;-60
2021/08/31 09:35:38;;;;;;;34.10;6.80;;;18.80;89.60;;;;;;5046010;28;20166;-60
2021/08/31 09:38:11;;;;;;;37.03;6.15;;;18.80;89.60;;;;;;5063009;28;20032;-60
2021/08/31 09:40:41;;;;;;;29.75;5.88;;;18.90;89.50;;;;;;5044997;28;20620;-60
2021/08/31 09:43:12;;;;;;;39.67;7.10;;;18.90;89.40;;;;;;5050061;28;20028;-60
2021/08/31 09:45:39;;;;;;;25.60;5.78;;;18.90;89.10;;;;;;5053111;28;20452;-60
2021/08/31 09:48:07;;;;;;;43.25;6.10;;;18.90;89.00;;;;;;5030264;28;20055;-60
2021/08/31 09:50:44;;;;;;;46.67;6.68;;;19.00;89.00;;;;;;5032337;28;20495;-59
2021/08/31 09:53:18;;;;;;;54.80;7.78;;;19.10;89.20;;;;;;5042421;28;20036;-60
2021/08/31 09:55:49;;;;;;;22.92;5.95;;;19.10;89.20;;;;;;5050660;28;20039;-60
2021/08/31 09:58:22;;;;;;;29.08;6.22;;;19.10;89.20;;;;;;5044877;28;20028;-60
2021/08/31 10:00:48;;;;;;;25.35;5.80;;;19.10;88.80;;;;;;5027021;28;20064;-60
2021/08/31 10:03:14;;;;;;;40.22;6.60;;;19.20;88.70;;;;;;5045909;28;20647;-59
2021/08/31 10:05:40;;;;;;;39.58;7.03;;;19.20;89.10;;;;;;5029258;28;20044;-60
2021/08/31 10:08:06;;;;;;;37.40;6.35;;;19.20;89.10;;;;;;5016747;28;20050;-59
2021/08/31 10:10:32;;;;;;;38.08;6.18;;;19.20;88.80;;;;;;5069799;28;20452;-60
2021/08/31 10:13:00;;;;;;;28.98;5.57;;;19.20;88.60;;;;;;5050425;28;20024;-60
2021/08/31 10:15:25;;;;;;;47.08;5.78;;;19.20;88.20;;;;;;5048092;28;20020;-60
2021/08/31 10:17:51;;;;;;;30.30;5.82;;;19.20;88.20;;;;;;5038795;28;20647;-60
2021/08/31 10:20:23;;;;;;;33.00;5.80;;;19.20;87.90;;;;;;5043141;28;20148;-59
2021/08/31 10:22:49;;;;;;;42.20;6.43;;;19.20;87.80;;;;;;5051571;28;20095;-60
2021/08/31 10:25:14;;;;;;;34.33;6.10;;;19.20;87.80;;;;;;5054993;28;20124;-59
2021/08/31 10:27:42;;;;;;;29.70;5.70;;;19.30;88.00;;;;;;5044065;28;20732;-60
2021/08/31 10:30:19;;;;;;;21.40;5.20;;;19.20;87.60;;;;;;5028138;28;20016;-61
2021/08/31 10:32:46;;;;;;;31.75;6.00;;;19.30;87.50;;;;;;5061124;28;20590;-62
2021/08/31 10:35:35;;;;;;;38.25;6.90;;;19.30;87.40;;;;;;5044186;28;20055;-60
2021/08/31 10:38:04;;;;;;;34.40;6.88;;;19.30;87.20;;;;;;5046105;28;20571;-60
2021/08/31 10:40:50;;;;;;;36.13;6.15;;;19.30;86.90;;;;;;5042633;28;20024;-61
2021/08/31 10:43:19;;;;;;;25.08;5.60;;;19.30;86.70;;;;;;5043902;28;20048;-59
2021/08/31 10:45:53;;;;;;;46.42;6.07;;;19.30;86.20;;;;;;5047829;28;20115;-60
2021/08/31 10:48:24;;;;;;;43.55;6.22;;;19.30;85.90;;;;;;5010932;28;20063;-60
2021/08/31 10:51:06;;;;;;;30.55;6.00;;;19.40;85.80;;;;;;5040933;28;20024;-60
2021/08/31 10:53:39;;;;;;;33.97;5.55;;;19.40;85.60;;;;;;5055357;28;20644;-59
2021/08/31 10:56:23;;;;;;;48.58;5.85;;;19.30;85.10;;;;;;5040792;28;20444;-60
2021/08/31 10:59:07;;;;;;;39.13;5.18;;;19.40;85.40;;;;;;5045337;28;20388;-60
2021/08/31 11:01:40;;;;;;;31.13;5.30;;;19.40;85.40;;;;;;5064103;28;20483;-60
2021/08/31 11:04:29;;;;;;;37.78;5.93;;;19.50;85.30;;;;;;5034353;28;20017;-60
2021/08/31 11:07:02;;;;;;;36.88;6.32;;;19.50;85.10;;;;;;5051301;28;20625;-60
2021/08/31 11:09:28;;;;;;;70.15;6.38;;;19.50;84.80;;;;;;5030122;28;20053;-60
2021/08/31 11:12:19;;;;;;;31.17;5.78;;;19.50;84.80;;;;;;5026039;28;20059;-60
2021/08/31 11:14:51;;;;;;;37.70;6.25;;;19.60;84.70;;;;;;5033255;28;20050;-59
2021/08/31 11:17:36;;;;;;;43.72;6.57;;;19.60;84.40;;;;;;5057588;28;20045;-60
2021/08/31 11:20:13;;;;;;;33.03;5.00;;;19.60;84.40;;;;;;5023788;28;20103;-59
2021/08/31 11:22:38;;;;;;;34.30;5.95;;;19.60;84.30;;;;;;5041949;28;20138;-60
2021/08/31 11:25:10;;;;;;;29.90;5.78;;;19.60;84.40;;;;;;5092627;27;20433;-61
2021/08/31 11:27:53;;;;;;;38.72;5.88;;;19.60;84.30;;;;;;5095408;28;20116;-61
2021/08/31 11:30:19;;;;;;;33.38;4.95;;;19.70;84.10;;;;;;5061535;28;20024;-60
2021/08/31 11:32:44;;;;;;;34.35;5.72;;;19.70;83.70;;;;;;5077824;28;20726;-61
2021/08/31 11:35:10;;;;;;;114.75;11.50;;;19.70;84.00;;;;;;5079071;28;20039;-61
2021/08/31 11:37:51;;;;;;;58.53;7.60;;;19.70;83.70;;;;;;5062186;28;20463;-60
2021/08/31 11:40:26;;;;;;;33.25;4.80;;;19.70;83.60;;;;;;5056924;28;20024;-61
2021/08/31 11:42:54;;;;;;;27.92;4.63;;;19.70;83.20;;;;;;5074623;28;20105;-60
2021/08/31 11:45:22;;;;;;;28.98;5.18;;;19.70;83.20;;;;;;5077758;28;20028;-61
2021/08/31 11:47:52;;;;;;;24.92;4.50;;;19.70;83.40;;;;;;5095308;28;20570;-61
2021/08/31 11:50:18;;;;;;;25.95;4.25;;;19.70;83.40;;;;;;5075372;28;20039;-61
2021/08/31 11:52:44;;;;;;;19.30;4.55;;;19.80;83.10;;;;;;5057896;28;20731;-61
2021/08/31 11:55:10;;;;;;;22.48;5.28;;;19.80;82.80;;;;;;5092203;28;20020;-61
2021/08/31 11:57:35;;;;;;;14.10;4.53;;;19.80;82.70;;;;;;5096490;28;20039;-60
2021/08/31 12:00:01;;;;;;;21.55;4.38;;;19.90;82.50;;;;;;5091107;28;20055;-61
2021/08/31 12:02:30;;;;;;;16.85;4.10;;;19.90;82.60;;;;;;5057195;28;20450;-61
2021/08/31 12:04:56;;;;;;;17.77;4.30;;;19.90;82.30;;;;;;5091450;28;20480;-61
2021/08/31 12:07:38;;;;;;;22.33;4.50;;;19.90;82.20;;;;;;5076641;28;20061;-61
2021/08/31 12:10:06;;;;;;;19.33;3.88;;;20.00;82.30;;;;;;5077524;28;20446;-61
2021/08/31 12:12:32;;;;;;;18.90;4.03;;;20.00;81.90;;;;;;5096267;28;20054;-60
2021/08/31 12:14:57;;;;;;;23.42;3.53;;;20.00;81.80;;;;;;5091434;28;20543;-61
2021/08/31 12:17:36;;;;;;;20.60;4.03;;;20.00;81.90;;;;;;5078269;28;20040;-61
2021/08/31 12:20:14;;;;;;;20.60;4.22;;;20.00;81.70;;;;;;5094357;28;20434;-61
2021/08/31 12:22:47;;;;;;;20.75;3.92;;;20.00;81.40;;;;;;5078243;28;20016;-60
2021/08/31 12:25:13;;;;;;;13.95;3.55;;;20.10;81.30;;;;;;5078225;28;20028;-61
2021/08/31 12:27:46;;;;;;;22.08;4.05;;;20.10;80.90;;;;;;5075879;28;20028;-60
2021/08/31 12:30:13;;;;;;;23.10;4.32;;;20.10;80.90;;;;;;5074955;28;20031;-61
2021/08/31 12:32:39;;;;;;;16.65;4.38;;;20.20;80.60;;;;;;5077210;28;20020;-61
2021/08/31 12:35:31;;;;;;;28.75;4.22;;;20.20;80.60;;;;;;5055826;28;20046;-60
2021/08/31 12:38:07;;;;;;;27.75;4.28;;;20.30;80.70;;;;;;5063129;28;20070;-61
2021/08/31 12:40:36;;;;;;;25.67;4.65;;;20.30;80.60;;;;;;5079687;28;20685;-61
2021/08/31 12:43:06;;;;;;;28.25;5.18;;;20.40;80.70;;;;;;5079984;28;20092;-61